createdAt,value
2022-08-22T00:00:13.430Z,22.10
2022-08-22T00:02:46.132Z,23.37
2022-08-22T00:02:55.439Z,22.43
2022-08-22T00:03:01.923Z,23.50
2022-08-22T00:03:27.229Z,22.11
2022-08-22T00:06:23.035Z,22.09
2022-08-22T00:22:56.670Z,21.97
2022-08-22T00:25:44.648Z,21.96
2022-08-22T00:28:36.389Z,21.91
2022-08-22T00:31:25.822Z,21.93
2022-08-22T00:34:14.382Z,21.88
2022-08-22T00:37:01.744Z,21.90
2022-08-22T00:50:50.324Z,21.86
2022-08-22T00:53:56.344Z,21.84
2022-08-22T00:57:29.705Z,21.84
2022-08-22T01:00:23.364Z,21.85
2022-08-22T01:17:31.345Z,21.74
2022-08-22T01:21:03.328Z,21.72
2022-08-22T01:24:31.526Z,21.72
2022-08-22T01:27:55.653Z,21.68
2022-08-22T01:31:26.643Z,21.67
2022-08-22T01:45:01.314Z,21.63
2022-08-22T01:47:54.210Z,21.61
2022-08-22T01:50:47.943Z,21.61
2022-08-22T01:53:45.315Z,21.60
2022-08-22T01:56:23.396Z,21.60
2022-08-22T02:09:45.315Z,21.56
2022-08-22T02:12:40.228Z,21.54
2022-08-22T02:15:22.108Z,21.52
2022-08-22T02:18:36.388Z,21.51
2022-08-22T02:21:22.295Z,21.51
2022-08-22T02:38:05.317Z,21.46
2022-08-22T02:40:46.118Z,21.44
2022-08-22T02:43:35.404Z,21.42
2022-08-22T02:46:22.858Z,21.42
2022-08-22T02:49:18.317Z,21.42
2022-08-22T02:52:02.297Z,21.41
2022-08-22T03:05:04.317Z,21.36
2022-08-22T03:07:54.367Z,21.34
2022-08-22T03:10:35.578Z,21.33
2022-08-22T03:13:24.157Z,21.28
2022-08-22T03:16:08.974Z,21.25
2022-08-22T03:31:23.395Z,21.22
2022-08-22T03:34:21.438Z,21.18
2022-08-22T03:37:20.064Z,21.16
2022-08-22T03:40:04.544Z,21.10
2022-08-22T03:43:24.374Z,21.05
2022-08-22T03:46:51.277Z,21.06
2022-08-22T03:57:23.396Z,20.96
2022-08-22T04:00:24.854Z,20.96
2022-08-22T04:03:59.374Z,20.91
2022-08-22T04:07:38.756Z,20.92
2022-08-22T04:11:02.522Z,20.89
2022-08-22T04:25:07.849Z,20.78
2022-08-22T04:28:00.797Z,20.75
2022-08-22T04:30:51.332Z,20.73
2022-08-22T04:33:33.151Z,20.71
2022-08-22T04:36:26.424Z,20.70
2022-08-22T04:50:08.412Z,20.70
2022-08-22T04:53:02.792Z,20.70
2022-08-22T04:56:07.077Z,20.71
2022-08-22T04:58:59.074Z,20.70
2022-08-22T05:01:50.419Z,20.70
2022-08-22T05:04:31.051Z,20.72
2022-08-22T05:07:20.338Z,20.73
2022-08-22T05:17:08.312Z,20.74
2022-08-22T05:19:56.471Z,20.75
2022-08-22T05:22:37.520Z,20.75
2022-08-22T05:25:23.351Z,20.76
2022-08-22T05:28:09.863Z,20.79
2022-08-22T05:30:54.381Z,20.78
2022-08-22T05:44:08.592Z,20.77
2022-08-22T05:46:47.911Z,20.76
2022-08-22T05:49:43.352Z,20.73
2022-08-22T05:52:46.020Z,20.72
2022-08-22T05:55:35.372Z,20.70
2022-08-22T06:12:24.331Z,20.74
2022-08-22T06:15:20.920Z,20.75
2022-08-22T06:18:01.085Z,20.75
2022-08-22T06:21:01.233Z,20.75
2022-08-22T06:23:43.032Z,20.80
2022-08-22T06:26:26.393Z,20.80
2022-08-22T06:36:56.316Z,20.78
2022-08-22T06:39:42.397Z,20.79
2022-08-22T06:42:21.532Z,20.81
2022-08-22T06:45:11.360Z,20.81
2022-08-22T06:47:52.217Z,20.82
2022-08-22T06:50:42.351Z,20.83
2022-08-22T07:03:59.391Z,20.95
2022-08-22T07:06:37.160Z,20.98
2022-08-22T07:09:31.355Z,20.98
2022-08-22T07:12:20.433Z,20.96
2022-08-22T07:15:07.351Z,20.99
2022-08-22T07:32:12.312Z,21.05
2022-08-22T07:35:16.371Z,21.06
2022-08-22T07:38:04.912Z,21.09
2022-08-22T07:40:57.352Z,21.08
2022-08-22T07:43:40.152Z,21.08
2022-08-22T07:46:35.594Z,21.09
2022-08-22T07:57:08.352Z,21.16
2022-08-22T07:59:58.352Z,21.16
2022-08-22T08:02:46.492Z,21.17
2022-08-22T08:05:32.373Z,21.18
2022-08-22T08:08:15.491Z,21.20
2022-08-22T08:11:02.392Z,21.21
2022-08-22T08:24:22.573Z,21.36
2022-08-22T08:27:03.052Z,21.38
2022-08-22T08:29:44.409Z,21.40
2022-08-22T08:32:18.842Z,21.41
2022-08-22T08:34:53.391Z,21.41
2022-08-22T08:37:37.871Z,21.45
2022-08-22T08:51:19.311Z,21.42
2022-08-22T08:54:39.392Z,21.45
2022-08-22T08:57:35.431Z,21.48
2022-08-22T09:00:30.347Z,21.47
2022-08-22T09:03:26.232Z,21.47
2022-08-22T09:06:52.795Z,21.45
2022-08-22T09:17:27.254Z,21.45
2022-08-22T09:20:49.374Z,21.47
2022-08-22T09:24:17.840Z,21.51
2022-08-22T09:27:08.617Z,21.54
2022-08-22T09:29:55.063Z,21.56
2022-08-22T09:46:03.352Z,21.70
2022-08-22T09:49:00.673Z,21.70
2022-08-22T09:51:52.000Z,21.70
2022-08-22T09:54:37.234Z,21.70
2022-08-22T09:57:35.392Z,21.72
2022-08-22T10:11:23.769Z,21.76
2022-08-22T10:14:07.993Z,21.76
2022-08-22T10:17:07.208Z,21.77
2022-08-22T10:19:47.751Z,21.76
2022-08-22T10:22:48.544Z,21.76
2022-08-22T10:25:36.760Z,21.76
2022-08-22T10:38:48.457Z,21.85
2022-08-22T10:41:42.356Z,21.89
2022-08-22T10:44:32.416Z,21.90
2022-08-22T10:47:20.378Z,21.89
2022-08-22T10:50:08.650Z,21.90
2022-08-22T11:06:00.336Z,21.94
2022-08-22T11:09:04.417Z,21.94
2022-08-22T11:11:54.401Z,21.91
2022-08-22T11:15:03.073Z,21.87
2022-08-22T11:31:51.657Z,21.96
2022-08-22T11:34:51.001Z,21.95
2022-08-22T11:37:56.282Z,21.94
2022-08-22T11:40:42.599Z,21.95
2022-08-22T11:43:46.376Z,21.97
2022-08-22T11:46:31.119Z,21.99
2022-08-22T11:59:40.151Z,22.04
2022-08-22T12:02:35.424Z,22.00
2022-08-22T12:05:24.301Z,22.00
2022-08-22T12:08:21.033Z,21.99
2022-08-22T12:11:02.542Z,21.98
2022-08-22T12:24:43.325Z,21.94
2022-08-22T12:28:14.416Z,21.96
2022-08-22T12:31:08.279Z,21.95
2022-08-22T12:34:26.237Z,21.97
2022-08-22T12:37:17.026Z,21.98
2022-08-22T12:57:23.724Z,22.04
2022-08-22T13:00:23.132Z,22.06
2022-08-22T13:03:14.417Z,22.05
2022-08-22T13:05:52.404Z,22.05
2022-08-22T13:19:07.373Z,22.09
2022-08-22T13:22:04.417Z,22.13
2022-08-22T13:24:52.401Z,22.15
2022-08-22T13:27:39.438Z,22.17
2022-08-22T13:30:37.403Z,22.18
2022-08-22T13:47:16.377Z,22.32
2022-08-22T13:49:54.957Z,22.35
2022-08-22T13:52:42.382Z,22.38
2022-08-22T13:55:30.677Z,22.41
2022-08-22T13:58:26.357Z,22.43
2022-08-22T14:01:36.064Z,22.45
2022-08-22T14:11:52.371Z,22.47
2022-08-22T14:14:32.811Z,22.46
2022-08-22T14:17:21.373Z,22.46
2022-08-22T14:20:04.011Z,22.47
2022-08-22T14:23:03.954Z,22.46
2022-08-22T14:25:42.756Z,22.45
2022-08-22T14:38:55.331Z,22.44
2022-08-22T14:41:56.377Z,22.44
2022-08-22T14:44:47.498Z,22.41
2022-08-22T14:48:14.085Z,22.38
2022-08-22T14:50:52.926Z,22.38
2022-08-22T15:07:28.379Z,22.31
2022-08-22T15:10:11.906Z,22.31
2022-08-22T15:12:58.391Z,22.27
2022-08-22T15:15:49.356Z,22.24
2022-08-22T15:18:43.968Z,22.25
2022-08-22T15:21:30.506Z,22.21
2022-08-22T15:34:41.338Z,22.18
2022-08-22T15:37:38.352Z,22.18
2022-08-22T15:40:40.570Z,22.14
2022-08-22T15:43:34.983Z,22.15
2022-08-22T15:46:33.970Z,22.14
2022-08-22T15:59:54.250Z,22.07
2022-08-22T16:02:43.610Z,22.04
2022-08-22T16:05:26.569Z,22.02
2022-08-22T16:08:13.331Z,22.02
2022-08-22T16:10:54.670Z,22.01
2022-08-22T16:27:31.370Z,21.94
2022-08-22T16:30:15.770Z,21.91
2022-08-22T16:33:02.416Z,21.90
2022-08-22T16:36:38.511Z,21.88
2022-08-22T16:39:44.401Z,21.86
2022-08-22T16:42:33.322Z,21.84
2022-08-22T16:52:48.371Z,21.80
2022-08-22T16:55:48.116Z,21.78
2022-08-22T16:59:22.371Z,21.78
2022-08-22T17:02:22.969Z,21.76
2022-08-22T17:05:29.341Z,21.75
2022-08-22T17:19:27.349Z,21.67
2022-08-22T17:22:11.830Z,21.66
2022-08-22T17:25:06.374Z,21.65
2022-08-22T17:27:43.851Z,21.66
2022-08-22T17:30:37.411Z,21.64
2022-08-22T17:47:07.310Z,21.58
2022-08-22T17:50:04.650Z,21.58
2022-08-22T17:52:49.810Z,21.58
2022-08-22T17:55:38.391Z,21.56
2022-08-22T17:58:35.666Z,21.54
2022-08-22T18:01:37.458Z,21.54
2022-08-22T18:14:59.389Z,21.49
2022-08-22T18:17:47.530Z,21.50
2022-08-22T18:20:37.390Z,21.49
2022-08-22T18:23:21.842Z,21.47
2022-08-22T18:26:33.410Z,21.47
2022-08-22T18:40:02.401Z,21.44
2022-08-22T18:42:47.510Z,21.41
2022-08-22T18:46:04.380Z,21.40
2022-08-22T18:48:59.342Z,21.39
2022-08-22T18:51:44.752Z,21.37
2022-08-22T19:08:56.332Z,21.31
2022-08-22T19:11:58.611Z,21.28
2022-08-22T19:15:05.662Z,21.27
2022-08-22T19:18:20.379Z,21.27
2022-08-22T19:21:16.773Z,21.25
2022-08-22T19:34:46.931Z,21.22
2022-08-22T19:37:35.379Z,21.22
2022-08-22T19:40:11.440Z,21.22
2022-08-22T19:42:53.373Z,21.21
2022-08-22T19:45:28.112Z,21.20
2022-08-22T19:48:14.302Z,21.19
2022-08-22T20:02:12.312Z,21.16
2022-08-22T20:05:10.535Z,21.15
2022-08-22T20:08:27.354Z,21.14
2022-08-22T20:11:19.652Z,21.13
2022-08-22T20:27:49.312Z,21.08
2022-08-22T20:30:30.977Z,21.05
2022-08-22T20:33:17.332Z,21.04
2022-08-22T20:35:54.595Z,21.03
2022-08-22T20:38:42.392Z,21.04
2022-08-22T20:41:40.052Z,21.04
2022-08-22T20:54:43.293Z,20.97
2022-08-22T20:57:26.538Z,20.92
2022-08-22T21:00:09.577Z,20.92
2022-08-22T21:02:59.313Z,20.91
2022-08-22T21:05:38.077Z,20.90
2022-08-22T21:21:41.351Z,20.87
2022-08-22T21:24:15.452Z,20.87
2022-08-22T21:27:06.573Z,20.88
2022-08-22T21:29:46.342Z,20.88
2022-08-22T21:32:40.311Z,20.87
2022-08-22T21:49:20.451Z,20.80
2022-08-22T21:52:01.370Z,20.80
2022-08-22T21:54:37.751Z,20.78
2022-08-22T21:57:27.511Z,20.78
2022-08-22T22:00:07.297Z,20.77
2022-08-22T22:02:49.391Z,20.75
2022-08-22T22:16:01.649Z,20.70
2022-08-22T22:18:38.269Z,20.68
2022-08-22T22:21:12.350Z,20.68
2022-08-22T22:23:46.313Z,20.69
2022-08-22T22:26:21.370Z,20.68
2022-08-22T22:40:18.432Z,20.66
2022-08-22T22:42:53.010Z,20.64
2022-08-22T22:45:27.308Z,20.62
2022-08-22T22:48:01.259Z,20.59
2022-08-22T22:50:35.469Z,20.58
2022-08-22T22:53:10.828Z,20.56
2022-08-22T22:55:59.618Z,20.53
2022-08-22T23:09:10.364Z,20.47
2022-08-22T23:11:50.265Z,20.43
2022-08-22T23:14:24.364Z,20.44
2022-08-22T23:17:00.726Z,20.44
2022-08-22T23:19:44.167Z,20.48
2022-08-22T23:22:20.724Z,20.44
2022-08-22T23:35:12.306Z,20.43
2022-08-22T23:37:52.358Z,20.41
2022-08-22T23:40:26.236Z,20.42
2022-08-22T23:43:00.379Z,20.39
2022-08-22T23:45:34.138Z,20.38
2022-08-22T23:48:08.320Z,20.38
